createdAt,value
2019-05-07T00:00:22.078Z,99.90
2019-05-07T00:02:55.815Z,99.90
2019-05-07T00:05:29.499Z,99.90
2019-05-07T00:08:03.231Z,99.90
2019-05-07T00:10:37.800Z,99.90
2019-05-07T00:13:12.912Z,99.90
2019-05-07T00:15:46.585Z,99.90
2019-05-07T00:18:20.277Z,99.90
2019-05-07T00:20:54.424Z,99.90
2019-05-07T00:23:28.086Z,99.90
2019-05-07T00:26:03.053Z,99.90
2019-05-07T00:28:36.729Z,99.90
2019-05-07T00:31:12.379Z,99.90
2019-05-07T00:33:45.996Z,99.90
2019-05-07T00:36:24.324Z,99.90
2019-05-07T00:39:08.783Z,99.90
2019-05-07T00:41:47.056Z,99.90
2019-05-07T00:44:22.096Z,99.90
2019-05-07T00:46:55.833Z,99.90
2019-05-07T00:49:29.897Z,99.90
2019-05-07T00:52:03.625Z,99.90
2019-05-07T00:54:37.250Z,99.90
2019-05-07T00:57:12.497Z,99.90
2019-05-07T00:59:49.766Z,99.90
2019-05-07T01:02:23.660Z,99.90
2019-05-07T01:04:57.271Z,99.90
2019-05-07T01:07:32.436Z,99.90
2019-05-07T01:10:09.549Z,99.90
2019-05-07T01:12:44.248Z,99.90
2019-05-07T01:15:28.776Z,99.90
2019-05-07T01:17:53.266Z,99.90
2019-05-07T01:20:26.885Z,99.90
2019-05-07T01:23:02.791Z,99.90
2019-05-07T01:25:36.441Z,99.90
2019-05-07T01:28:10.104Z,99.90
2019-05-07T01:30:43.726Z,99.90
2019-05-07T01:33:24.751Z,99.90
2019-05-07T01:36:02.899Z,99.90
2019-05-07T01:38:36.670Z,99.90
2019-05-07T01:41:12.357Z,99.90
2019-05-07T01:43:45.597Z,99.90
2019-05-07T01:46:19.340Z,99.90
2019-05-07T01:48:56.993Z,99.90
2019-05-07T01:51:28.200Z,99.90
2019-05-07T01:54:02.338Z,99.90
2019-05-07T01:56:36.064Z,99.90
2019-05-07T01:59:11.914Z,99.90
2019-05-07T02:01:46.094Z,99.90
2019-05-07T02:04:33.018Z,99.90
2019-05-07T02:07:29.246Z,99.90
2019-05-07T02:10:07.679Z,99.90
2019-05-07T02:12:44.891Z,99.90
2019-05-07T02:15:18.593Z,99.90
2019-05-07T02:17:52.687Z,99.90
2019-05-07T02:20:26.419Z,99.90
2019-05-07T02:23:00.111Z,99.90
2019-05-07T02:25:33.772Z,99.90
2019-05-07T02:28:08.339Z,99.90
2019-05-07T02:30:44.517Z,99.90
2019-05-07T02:33:18.212Z,99.90
2019-05-07T02:35:53.534Z,99.90
2019-05-07T02:38:34.014Z,99.90
2019-05-07T02:41:14.154Z,99.90
2019-05-07T02:43:46.947Z,99.90
2019-05-07T02:46:32.976Z,99.90
2019-05-07T02:49:23.570Z,99.90
2019-05-07T02:52:03.784Z,99.90
2019-05-07T02:54:54.750Z,99.90
2019-05-07T02:57:29.476Z,99.90
2019-05-07T03:00:07.346Z,99.90
2019-05-07T03:02:43.584Z,99.90
2019-05-07T03:05:17.188Z,99.90
2019-05-07T03:07:53.601Z,99.90
2019-05-07T03:10:26.332Z,99.90
2019-05-07T03:13:02.709Z,99.90
2019-05-07T03:15:39.447Z,99.90
2019-05-07T03:18:14.327Z,99.90
2019-05-07T03:20:59.094Z,99.90
2019-05-07T03:23:37.147Z,99.90
2019-05-07T03:26:13.872Z,99.90
2019-05-07T03:28:53.580Z,99.90
2019-05-07T03:31:28.870Z,99.90
2019-05-07T03:34:07.363Z,99.90
2019-05-07T03:36:47.810Z,99.90
2019-05-07T03:39:20.668Z,99.90
2019-05-07T03:41:57.051Z,99.90
2019-05-07T03:44:45.364Z,99.90
2019-05-07T03:47:24.120Z,99.90
2019-05-07T03:49:58.042Z,99.90
2019-05-07T03:52:33.532Z,99.90
2019-05-07T03:55:09.101Z,99.90
2019-05-07T03:57:43.709Z,99.90
2019-05-07T04:00:17.627Z,99.90
2019-05-07T04:02:52.776Z,99.90
2019-05-07T04:05:28.369Z,99.90
2019-05-07T04:08:03.345Z,99.90
2019-05-07T04:10:37.350Z,99.90
2019-05-07T04:13:13.401Z,99.90
2019-05-07T04:15:46.582Z,99.90
2019-05-07T04:18:23.594Z,99.90
2019-05-07T04:20:56.463Z,99.90
2019-05-07T04:23:33.742Z,99.90
2019-05-07T04:26:08.079Z,99.90
2019-05-07T04:29:05.970Z,99.90
2019-05-07T04:31:43.492Z,99.90
2019-05-07T04:34:23.840Z,99.90
2019-05-07T04:36:57.978Z,99.90
2019-05-07T04:39:33.460Z,99.90
2019-05-07T04:42:07.216Z,99.90
2019-05-07T04:44:43.562Z,99.90
2019-05-07T04:47:32.703Z,99.90
2019-05-07T04:49:53.449Z,99.90
2019-05-07T04:52:28.882Z,99.90
2019-05-07T04:55:04.230Z,99.90
2019-05-07T04:57:38.179Z,99.90
2019-05-07T05:00:13.565Z,99.90
2019-05-07T05:02:53.194Z,99.90
2019-05-07T05:05:27.137Z,99.90
2019-05-07T05:08:03.688Z,99.90
2019-05-07T05:10:36.693Z,99.90
2019-05-07T05:13:12.669Z,99.90
2019-05-07T05:15:47.152Z,99.90
2019-05-07T05:18:21.917Z,99.90
2019-05-07T05:21:02.635Z,99.90
2019-05-07T05:23:41.885Z,99.90
2019-05-07T05:26:15.793Z,99.90
2019-05-07T05:28:49.537Z,99.90
2019-05-07T05:31:23.452Z,99.90
2019-05-07T05:33:57.055Z,99.90
2019-05-07T05:36:33.108Z,99.90
2019-05-07T05:39:09.228Z,99.90
2019-05-07T05:41:45.221Z,99.90
2019-05-07T05:44:32.051Z,99.90
2019-05-07T05:47:06.078Z,99.90
2019-05-07T05:49:40.245Z,99.90
2019-05-07T05:52:23.463Z,99.90
2019-05-07T05:54:59.265Z,99.90
2019-05-07T05:57:42.437Z,99.90
2019-05-07T06:00:22.205Z,99.90
2019-05-07T06:03:14.422Z,99.90
2019-05-07T06:06:02.449Z,99.90
2019-05-07T06:08:38.442Z,99.90
2019-05-07T06:11:14.704Z,99.90
2019-05-07T06:14:02.699Z,99.90
2019-05-07T06:16:38.572Z,99.90
2019-05-07T06:19:22.492Z,99.90
2019-05-07T06:22:02.105Z,99.90
2019-05-07T06:24:42.553Z,99.90
2019-05-07T06:27:16.383Z,99.90
2019-05-07T06:29:54.926Z,99.90
2019-05-07T06:32:29.066Z,99.90
2019-05-07T06:35:12.775Z,99.90
2019-05-07T06:37:47.459Z,99.90
2019-05-07T06:40:31.767Z,99.90
2019-05-07T06:43:07.125Z,97.50
2019-05-07T06:45:51.862Z,92.40
2019-05-07T06:48:37.966Z,99.90
2019-05-07T06:51:03.200Z,99.90
2019-05-07T06:53:37.518Z,99.90
2019-05-07T06:56:13.348Z,98.40
2019-05-07T06:58:52.678Z,99.90
2019-05-07T07:01:32.353Z,99.90
2019-05-07T07:04:12.954Z,99.20
2019-05-07T07:06:48.947Z,98.70
2019-05-07T07:09:25.108Z,97.70
2019-05-07T07:12:02.098Z,95.90
2019-05-07T07:14:36.426Z,86.80
2019-05-07T07:17:14.135Z,79.60
2019-05-07T07:19:48.446Z,81.90
2019-05-07T07:22:23.098Z,94.20
2019-05-07T07:24:57.322Z,93.70
2019-05-07T07:27:32.293Z,88.50
2019-05-07T07:30:25.865Z,75.10
2019-05-07T07:33:02.823Z,74.60
2019-05-07T07:35:38.198Z,72.40
2019-05-07T07:38:22.288Z,77.30
2019-05-07T07:40:58.462Z,77.70
2019-05-07T07:43:32.727Z,76.30
2019-05-07T07:46:06.967Z,69.00
2019-05-07T07:48:43.312Z,72.90
2019-05-07T07:51:34.254Z,87.20
2019-05-07T07:53:55.207Z,91.40
2019-05-07T07:56:52.906Z,83.60
2019-05-07T07:59:41.993Z,80.50
2019-05-07T08:02:17.448Z,76.20
2019-05-07T08:04:52.786Z,75.50
2019-05-07T08:07:27.148Z,84.00
2019-05-07T08:10:06.185Z,85.70
2019-05-07T08:12:42.204Z,80.00
2019-05-07T08:15:21.838Z,92.40
2019-05-07T08:17:54.096Z,93.10
2019-05-07T08:20:32.629Z,96.50
2019-05-07T08:23:07.089Z,95.50
2019-05-07T08:25:48.437Z,99.10
2019-05-07T08:28:23.378Z,98.70
2019-05-07T08:31:08.572Z,99.40
2019-05-07T08:33:47.152Z,94.20
2019-05-07T08:36:22.633Z,82.70
2019-05-07T08:38:57.715Z,88.10
2019-05-07T08:41:32.068Z,85.60
2019-05-07T08:44:11.909Z,93.20
2019-05-07T08:46:48.247Z,90.20
2019-05-07T08:49:36.201Z,91.30
2019-05-07T08:52:03.746Z,92.70
2019-05-07T08:54:38.362Z,93.60
2019-05-07T08:57:12.684Z,91.10
2019-05-07T08:59:58.445Z,71.80
2019-05-07T09:02:23.283Z,68.80
2019-05-07T09:04:57.756Z,78.20
2019-05-07T09:07:35.727Z,73.00
2019-05-07T09:10:10.038Z,67.00
2019-05-07T09:12:44.510Z,72.90
2019-05-07T09:15:18.949Z,69.10
2019-05-07T09:17:55.150Z,77.40
2019-05-07T09:20:29.479Z,88.90
2019-05-07T09:23:03.908Z,84.60
2019-05-07T09:25:41.573Z,71.20
2019-05-07T09:28:16.255Z,64.30
2019-05-07T09:31:01.821Z,64.70
2019-05-07T09:33:37.682Z,68.70
2019-05-07T09:36:16.155Z,68.60
2019-05-07T09:38:56.795Z,71.10
2019-05-07T09:41:26.886Z,69.10
2019-05-07T09:44:03.184Z,76.00
2019-05-07T09:46:37.428Z,77.50
2019-05-07T09:49:12.154Z,76.20
2019-05-07T09:51:46.474Z,76.50
2019-05-07T09:54:23.468Z,83.00
2019-05-07T09:56:57.610Z,74.70
2019-05-07T09:59:32.574Z,70.50
2019-05-07T10:02:06.986Z,61.60
2019-05-07T10:04:42.585Z,59.00
2019-05-07T10:07:16.923Z,61.30
2019-05-07T10:09:54.270Z,62.20
2019-05-07T10:12:36.497Z,63.30
2019-05-07T10:15:12.337Z,63.50
2019-05-07T10:17:48.688Z,72.60
2019-05-07T10:20:23.222Z,74.60
2019-05-07T10:22:57.536Z,75.50
2019-05-07T10:25:39.477Z,69.00
2019-05-07T10:28:13.827Z,72.80
2019-05-07T10:30:55.933Z,77.40
2019-05-07T10:33:31.948Z,69.00
2019-05-07T10:36:09.806Z,65.30
2019-05-07T10:38:44.062Z,62.70
2019-05-07T10:41:18.327Z,60.70
2019-05-07T10:43:52.658Z,58.30
2019-05-07T10:46:42.265Z,55.60
2019-05-07T10:49:18.389Z,53.80
2019-05-07T10:51:52.992Z,55.80
2019-05-07T10:54:27.488Z,56.70
2019-05-07T10:57:01.645Z,58.10
2019-05-07T10:59:36.181Z,54.50
2019-05-07T11:02:17.868Z,52.80
2019-05-07T11:04:53.221Z,52.10
2019-05-07T11:07:28.209Z,50.10
2019-05-07T11:10:02.504Z,54.50
2019-05-07T11:12:38.636Z,55.00
2019-05-07T11:15:13.217Z,56.60
2019-05-07T11:17:56.375Z,56.80
2019-05-07T11:20:32.046Z,57.80
2019-05-07T11:23:06.857Z,55.20
2019-05-07T11:25:42.124Z,57.20
2019-05-07T11:28:17.028Z,58.90
2019-05-07T11:30:51.368Z,69.50
2019-05-07T11:33:25.570Z,84.60
2019-05-07T11:36:02.162Z,94.70
2019-05-07T11:38:36.532Z,97.70
2019-05-07T11:41:12.650Z,99.90
2019-05-07T11:44:04.036Z,96.40
2019-05-07T11:46:41.567Z,99.90
2019-05-07T11:49:17.394Z,99.90
2019-05-07T11:52:00.277Z,99.90
2019-05-07T11:54:34.476Z,99.90
2019-05-07T11:57:11.686Z,96.80
2019-05-07T11:59:45.800Z,91.80
2019-05-07T12:02:24.185Z,85.00
2019-05-07T12:04:58.447Z,83.10
2019-05-07T12:07:32.862Z,90.10
2019-05-07T12:10:07.570Z,91.10
2019-05-07T12:12:43.708Z,88.30
2019-05-07T12:15:18.549Z,85.00
2019-05-07T12:17:53.255Z,72.10
2019-05-07T12:20:27.715Z,63.60
2019-05-07T12:23:03.005Z,64.90
2019-05-07T12:25:37.255Z,64.90
2019-05-07T12:28:13.290Z,66.00
2019-05-07T12:30:55.093Z,67.10
2019-05-07T12:33:38.861Z,59.50
2019-05-07T12:36:14.724Z,57.90
2019-05-07T12:38:49.511Z,64.50
2019-05-07T12:41:33.926Z,60.70
2019-05-07T12:44:09.579Z,57.10
2019-05-07T12:46:43.877Z,58.50
2019-05-07T12:49:18.526Z,58.30
2019-05-07T12:51:54.383Z,57.40
2019-05-07T12:54:37.900Z,55.40
2019-05-07T12:57:12.135Z,54.50
2019-05-07T12:59:49.540Z,56.00
2019-05-07T13:02:42.103Z,55.60
2019-05-07T13:05:15.453Z,58.90
2019-05-07T13:07:51.368Z,67.70
2019-05-07T13:10:25.716Z,99.70
2019-05-07T13:13:02.035Z,95.70
2019-05-07T13:15:36.023Z,99.90
2019-05-07T13:18:12.559Z,99.90
2019-05-07T13:20:48.854Z,99.90
2019-05-07T13:23:23.194Z,99.90
2019-05-07T13:25:57.536Z,99.90
2019-05-07T13:28:31.837Z,99.90
2019-05-07T13:31:06.351Z,99.90
2019-05-07T13:33:42.086Z,99.90
2019-05-07T13:36:16.641Z,99.90
2019-05-07T13:39:02.330Z,99.90
2019-05-07T13:41:37.756Z,99.90
2019-05-07T13:44:16.592Z,99.90
2019-05-07T13:46:53.096Z,99.90
2019-05-07T13:49:27.894Z,99.90
2019-05-07T13:52:03.831Z,99.90
2019-05-07T13:54:41.807Z,99.90
2019-05-07T13:57:15.409Z,99.90
2019-05-07T13:59:49.713Z,99.90
2019-05-07T14:02:26.203Z,99.90
2019-05-07T14:05:00.523Z,99.90
2019-05-07T14:07:36.518Z,99.90
2019-05-07T14:10:12.659Z,84.20
2019-05-07T14:12:47.228Z,82.70
2019-05-07T14:15:23.155Z,80.40
2019-05-07T14:17:57.796Z,76.90
2019-05-07T14:20:33.018Z,72.90
2019-05-07T14:23:07.915Z,64.30
2019-05-07T14:25:42.387Z,65.00
2019-05-07T14:28:16.720Z,92.10
2019-05-07T14:30:52.303Z,84.40
2019-05-07T14:33:37.541Z,76.70
2019-05-07T14:36:13.411Z,78.70
2019-05-07T14:38:49.329Z,80.70
2019-05-07T14:41:25.658Z,81.30
2019-05-07T14:44:01.296Z,87.10
2019-05-07T14:46:45.567Z,90.10
2019-05-07T14:49:14.014Z,90.30
2019-05-07T14:51:48.288Z,90.40
2019-05-07T14:54:22.786Z,96.60
2019-05-07T14:56:57.016Z,97.30
2019-05-07T14:59:32.329Z,99.00
2019-05-07T15:02:06.789Z,99.10
2019-05-07T15:04:42.515Z,99.80
2019-05-07T15:07:16.929Z,95.90
2019-05-07T15:09:51.914Z,94.20
2019-05-07T15:12:26.264Z,91.30
2019-05-07T15:15:02.579Z,88.30
2019-05-07T15:17:52.456Z,74.30
2019-05-07T15:20:26.868Z,69.60
2019-05-07T15:23:06.336Z,75.10
2019-05-07T15:25:40.809Z,81.80
2019-05-07T15:28:15.114Z,90.60
2019-05-07T15:30:52.379Z,91.30
2019-05-07T15:33:26.850Z,75.70
2019-05-07T15:36:02.909Z,72.70
2019-05-07T15:38:39.730Z,72.00
2019-05-07T15:41:14.065Z,73.50
2019-05-07T15:43:49.460Z,69.00
2019-05-07T15:46:23.794Z,68.30
2019-05-07T15:48:58.019Z,68.80
2019-05-07T15:51:34.341Z,66.00
2019-05-07T15:54:08.610Z,67.00
2019-05-07T15:56:43.619Z,67.10
2019-05-07T15:59:23.540Z,65.00
2019-05-07T16:01:59.452Z,80.80
2019-05-07T16:04:33.686Z,94.60
2019-05-07T16:07:09.898Z,93.00
2019-05-07T16:09:44.209Z,93.80
2019-05-07T16:12:22.713Z,80.70
2019-05-07T16:14:57.025Z,83.10
2019-05-07T16:17:33.059Z,82.70
2019-05-07T16:20:08.348Z,88.30
2019-05-07T16:22:48.784Z,91.50
2019-05-07T16:25:22.973Z,92.60
2019-05-07T16:27:57.721Z,95.80
2019-05-07T16:30:32.483Z,96.40
2019-05-07T16:33:06.710Z,98.10
2019-05-07T16:35:42.534Z,97.90
2019-05-07T16:38:18.186Z,98.00
2019-05-07T16:40:52.510Z,99.90
2019-05-07T16:43:27.906Z,99.90
2019-05-07T16:46:02.443Z,99.90
2019-05-07T16:48:37.095Z,99.90
2019-05-07T16:51:12.784Z,99.90
2019-05-07T16:53:47.456Z,99.90
2019-05-07T16:56:22.739Z,99.90
2019-05-07T16:59:01.748Z,99.90
2019-05-07T17:01:36.115Z,98.60
2019-05-07T17:04:12.140Z,99.40
2019-05-07T17:06:46.421Z,96.80
2019-05-07T17:09:22.322Z,98.20
2019-05-07T17:11:57.102Z,98.30
2019-05-07T17:14:31.570Z,99.90
2019-05-07T17:17:05.871Z,99.90
2019-05-07T17:19:42.424Z,99.90
2019-05-07T17:22:16.206Z,99.90
2019-05-07T17:24:52.117Z,99.90
2019-05-07T17:27:26.291Z,99.90
2019-05-07T17:30:02.789Z,99.90
2019-05-07T17:32:36.594Z,99.90
2019-05-07T17:35:12.823Z,99.90
2019-05-07T17:37:47.179Z,99.90
2019-05-07T17:40:22.687Z,99.90
2019-05-07T17:42:56.336Z,99.90
2019-05-07T17:45:32.210Z,99.90
2019-05-07T17:48:05.607Z,99.90
2019-05-07T17:50:49.811Z,99.90
2019-05-07T17:53:23.651Z,99.90
2019-05-07T17:55:57.341Z,99.90
2019-05-07T17:58:32.529Z,99.90
2019-05-07T18:01:06.652Z,99.90
2019-05-07T18:03:43.454Z,99.90
2019-05-07T18:06:17.225Z,99.90
2019-05-07T18:08:52.011Z,99.90
2019-05-07T18:11:25.692Z,99.90
2019-05-07T18:13:59.676Z,99.90
2019-05-07T18:16:52.693Z,99.90
2019-05-07T18:19:28.071Z,99.90
2019-05-07T18:22:02.676Z,99.90
2019-05-07T18:24:36.663Z,99.90
2019-05-07T18:27:12.617Z,99.90
2019-05-07T18:29:52.092Z,99.90
2019-05-07T18:32:26.567Z,99.90
2019-05-07T18:35:02.346Z,99.90
2019-05-07T18:37:37.476Z,99.90
2019-05-07T18:40:12.718Z,99.90
2019-05-07T18:42:46.439Z,99.90
2019-05-07T18:45:21.847Z,99.90
2019-05-07T18:47:55.540Z,99.90
2019-05-07T18:50:32.633Z,99.90
2019-05-07T18:53:06.754Z,99.90
2019-05-07T18:55:42.368Z,99.90
2019-05-07T18:58:15.924Z,99.90
2019-05-07T19:00:51.939Z,99.90
2019-05-07T19:03:25.772Z,99.90
2019-05-07T19:05:59.502Z,99.90
2019-05-07T19:08:35.662Z,99.90
2019-05-07T19:11:09.088Z,99.90
2019-05-07T19:13:43.295Z,99.90
2019-05-07T19:16:19.033Z,99.90
2019-05-07T19:18:52.997Z,99.90
2019-05-07T19:21:26.704Z,99.90
2019-05-07T19:24:02.293Z,99.90
2019-05-07T19:26:36.134Z,99.90
2019-05-07T19:29:12.347Z,99.90
2019-05-07T19:31:45.428Z,99.90
2019-05-07T19:34:22.459Z,99.90
2019-05-07T19:36:56.159Z,99.90
2019-05-07T19:39:32.293Z,99.90
2019-05-07T19:42:05.332Z,99.90
2019-05-07T19:44:39.319Z,99.90
2019-05-07T19:47:12.986Z,99.90
2019-05-07T19:49:46.861Z,99.90
2019-05-07T19:52:23.351Z,99.90
2019-05-07T19:55:01.558Z,99.90
2019-05-07T19:57:39.899Z,99.90
2019-05-07T20:00:13.937Z,99.90
2019-05-07T20:02:52.577Z,99.90
2019-05-07T20:05:26.294Z,99.90
2019-05-07T20:08:02.658Z,99.90
2019-05-07T20:10:36.927Z,99.90
2019-05-07T20:13:12.474Z,99.90
2019-05-07T20:15:47.922Z,99.90
2019-05-07T20:18:24.162Z,99.90
2019-05-07T20:20:57.756Z,99.90
2019-05-07T20:23:32.335Z,99.90
2019-05-07T20:26:06.593Z,99.90
2019-05-07T20:28:41.708Z,99.90
2019-05-07T20:31:16.578Z,99.90
2019-05-07T20:33:50.247Z,99.90
2019-05-07T20:36:24.226Z,99.90
2019-05-07T20:38:58.049Z,99.90
2019-05-07T20:41:32.932Z,99.90
2019-05-07T20:44:06.894Z,99.90
2019-05-07T20:46:42.119Z,99.90
2019-05-07T20:49:16.094Z,99.90
2019-05-07T20:51:49.712Z,99.90
2019-05-07T20:54:32.470Z,99.90
2019-05-07T20:57:14.159Z,99.90
2019-05-07T20:59:47.851Z,99.90
2019-05-07T21:02:25.149Z,99.90
2019-05-07T21:04:58.781Z,99.90
2019-05-07T21:07:32.833Z,99.90
2019-05-07T21:10:06.850Z,99.90
2019-05-07T21:12:42.330Z,99.90
2019-05-07T21:15:16.184Z,99.90
2019-05-07T21:17:52.388Z,99.90
2019-05-07T21:20:25.751Z,99.90
2019-05-07T21:23:02.589Z,99.90
2019-05-07T21:25:45.507Z,99.90
2019-05-07T21:28:13.316Z,99.90
2019-05-07T21:30:46.966Z,99.90
2019-05-07T21:33:22.926Z,99.90
2019-05-07T21:35:56.352Z,99.90
2019-05-07T21:38:30.278Z,99.90
2019-05-07T21:41:04.530Z,99.90
2019-05-07T21:43:38.519Z,99.90
2019-05-07T21:46:12.845Z,99.90
2019-05-07T21:48:46.812Z,99.90
2019-05-07T21:51:22.656Z,99.90
2019-05-07T21:54:03.758Z,99.90
2019-05-07T21:56:47.272Z,99.90
2019-05-07T21:59:25.334Z,99.90
2019-05-07T22:02:02.182Z,99.90
2019-05-07T22:04:36.061Z,99.90
2019-05-07T22:07:12.072Z,99.90
2019-05-07T22:09:45.074Z,99.90
2019-05-07T22:12:18.758Z,99.90
2019-05-07T22:14:52.350Z,99.90
2019-05-07T22:17:25.958Z,99.90
2019-05-07T22:19:59.650Z,99.90
2019-05-07T22:22:34.417Z,99.90
2019-05-07T22:25:08.162Z,99.90
2019-05-07T22:27:42.170Z,99.90
2019-05-07T22:30:23.370Z,99.90
2019-05-07T22:32:58.623Z,99.90
2019-05-07T22:35:34.868Z,99.90
2019-05-07T22:38:08.863Z,99.90
2019-05-07T22:40:43.389Z,99.90
2019-05-07T22:43:17.144Z,99.90
2019-05-07T22:45:50.763Z,99.90
2019-05-07T22:48:24.444Z,99.90
2019-05-07T22:50:59.056Z,99.90
2019-05-07T22:53:32.919Z,99.90
2019-05-07T22:56:06.536Z,99.90
2019-05-07T22:58:42.041Z,99.90
2019-05-07T23:01:17.621Z,99.90
2019-05-07T23:03:51.850Z,99.90
2019-05-07T23:06:27.486Z,99.90
2019-05-07T23:09:01.999Z,99.90
2019-05-07T23:11:35.681Z,99.90
2019-05-07T23:14:09.296Z,99.90
2019-05-07T23:16:43.956Z,99.90
2019-05-07T23:19:17.624Z,99.90
2019-05-07T23:21:52.177Z,99.90
2019-05-07T23:24:25.992Z,99.90
2019-05-07T23:26:59.714Z,99.90
2019-05-07T23:29:33.346Z,99.90
2019-05-07T23:32:07.144Z,99.90
2019-05-07T23:34:40.729Z,99.90
2019-05-07T23:37:14.355Z,99.90
2019-05-07T23:39:51.847Z,99.90
2019-05-07T23:42:26.593Z,99.90
2019-05-07T23:45:01.987Z,99.90
2019-05-07T23:47:35.728Z,99.90
2019-05-07T23:50:12.456Z,99.90
2019-05-07T23:52:45.811Z,99.90
2019-05-07T23:55:22.609Z,99.90
2019-05-07T23:57:55.713Z,99.90
